Terminal Aerodrome Forecast
Issued by NWS

Home | Current Version | Previous Version | Text Only | Print | Product List | Glossary On
Versions: 1 2 3 4 5 6 7 8 9 10 11 12 13 14 15 16 17 18 19 20 21 22 23 24 25 26 27 28
000
FTUS41 KOKX 061237 AAA
TAFGON
TAF AMD
KGON 061237Z 0613/0712 VRB03KT 6SM HZ BKN250
     FM061400 20006KT P6SM FEW060 BKN250
     FM061800 19008KT P6SM SCT150 BKN200
     FM062300 18005KT P6SM BKN050
     FM070200 15004KT P6SM SCT060 BKN120
     FM070500 15004KT 4SM BR BKN015
     FM070700 14004KT 2SM BR BKN007
     FM070900 14004KT 1SM BR BKN004=

USA.gov is the U.S. government's official web portal to all federal, state and local government web resources and services.